Time;durP1;ratioP1;P1;durP2;ratioP2;P2;SDS_P1;SDS_P2;PMS_P1;PMS_P2;Temp;Humidity;BMP_temperature;BMP_pressure;BME280_temperature;BME280_humidity;BME280_pressure;Samples;Min_cycle;Max_cycle;Signal;HPM_P1;HPM_P2
2024/01/30 00:01:54;;;;;;;22.13;16.45;;;5.60;99.90;;;;;;5111180;28;20047;-71
2024/01/30 00:04:21;;;;;;;22.48;16.65;;;5.60;99.90;;;;;;5111369;28;20095;-71
2024/01/30 00:06:52;;;;;;;30.60;17.63;;;5.60;99.90;;;;;;5111597;28;20565;-72
2024/01/30 00:09:19;;;;;;;22.55;17.65;;;5.60;99.90;;;;;;5108981;28;20035;-71
2024/01/30 00:11:46;;;;;;;23.45;17.52;;;5.80;99.90;;;;;;5111563;28;20445;-71
2024/01/30 00:14:13;;;;;;;25.30;18.10;;;5.60;99.90;;;;;;5111570;28;20044;-71
2024/01/30 00:16:40;;;;;;;23.42;17.35;;;5.60;99.90;;;;;;5110887;28;20047;-71
2024/01/30 00:19:08;;;;;;;22.67;17.15;;;5.60;99.90;;;;;;5111421;28;20051;-71
2024/01/30 00:21:35;;;;;;;21.48;16.75;;;5.60;99.90;;;;;;5111537;28;20047;-71
2024/01/30 00:24:03;;;;;;;21.42;16.48;;;5.60;99.90;;;;;;5110689;28;20140;-71
2024/01/30 00:26:30;;;;;;;25.08;17.02;;;5.60;99.90;;;;;;5111498;28;20516;-72
2024/01/30 00:28:57;;;;;;;23.90;17.40;;;5.60;99.90;;;;;;5111075;28;20449;-72
2024/01/30 00:31:24;;;;;;;21.77;16.50;;;5.60;99.90;;;;;;5110847;28;20048;-71
2024/01/30 00:33:51;;;;;;;24.05;17.02;;;5.60;99.90;;;;;;5111376;28;20043;-71
2024/01/30 00:36:17;;;;;;;26.73;16.98;;;5.60;99.90;;;;;;5111170;28;20059;-71
2024/01/30 00:38:44;;;;;;;24.67;17.92;;;5.60;99.90;;;;;;5110813;28;20092;-71
2024/01/30 00:41:13;;;;;;;24.10;17.80;;;5.60;99.90;;;;;;5111143;28;20093;-71
2024/01/30 00:43:39;;;;;;;25.05;17.38;;;5.60;99.90;;;;;;5110358;28;20092;-71
2024/01/30 00:46:06;;;;;;;23.65;17.85;;;5.60;99.90;;;;;;5108806;28;20089;-71
2024/01/30 00:48:33;;;;;;;25.67;19.17;;;5.60;99.90;;;;;;5110985;28;20040;-71
2024/01/30 00:51:00;;;;;;;23.48;17.80;;;5.60;99.90;;;;;;5108287;28;20052;-71
2024/01/30 00:53:27;;;;;;;22.95;17.17;;;5.60;99.90;;;;;;5110404;28;20040;-70
2024/01/30 00:55:54;;;;;;;24.48;18.52;;;5.60;99.90;;;;;;5111052;28;20043;-70
2024/01/30 00:58:22;;;;;;;26.63;19.05;;;5.60;99.90;;;;;;5110569;28;20500;-70
2024/01/30 01:00:49;;;;;;;26.80;17.50;;;5.60;99.90;;;;;;5110744;28;20051;-70
2024/01/30 01:03:16;;;;;;;25.38;17.60;;;5.60;99.90;;;;;;5110941;28;20117;-70
2024/01/30 01:05:43;;;;;;;23.92;17.98;;;5.60;99.90;;;;;;5112119;28;20055;-70
2024/01/30 01:08:10;;;;;;;24.17;18.30;;;5.60;99.90;;;;;;5114631;28;20143;-70
2024/01/30 01:10:37;;;;;;;23.42;17.77;;;5.70;99.90;;;;;;5114738;28;20372;-69
2024/01/30 01:13:04;;;;;;;26.80;18.08;;;5.60;99.90;;;;;;5114144;28;20164;-70
2024/01/30 01:15:32;;;;;;;23.63;17.63;;;5.60;99.90;;;;;;5114352;28;20564;-70
2024/01/30 01:17:59;;;;;;;22.75;17.70;;;5.70;99.90;;;;;;5112284;28;20052;-70
2024/01/30 01:20:26;;;;;;;23.10;17.95;;;5.60;99.90;;;;;;5113793;28;20056;-70
2024/01/30 01:22:53;;;;;;;24.45;18.17;;;5.70;99.90;;;;;;5114389;28;20106;-70
2024/01/30 01:25:20;;;;;;;25.65;19.17;;;5.60;99.90;;;;;;5114002;28;20513;-70
2024/01/30 01:27:51;;;;;;;24.25;17.63;;;5.60;99.90;;;;;;5113916;28;20044;-70
2024/01/30 01:30:21;;;;;;;26.55;19.17;;;5.50;99.90;;;;;;5112697;28;20051;-71
2024/01/30 01:32:54;;;;;;;30.08;17.92;;;5.50;99.90;;;;;;5111564;28;20414;-71
2024/01/30 01:35:22;;;;;;;24.70;18.38;;;5.50;99.90;;;;;;5114139;28;20048;-71
2024/01/30 01:37:54;;;;;;;23.65;18.17;;;5.70;99.90;;;;;;5114204;28;20054;-70
2024/01/30 01:40:22;;;;;;;25.13;17.45;;;5.40;99.90;;;;;;5113622;28;20071;-70
2024/01/30 01:42:50;;;;;;;28.92;18.83;;;5.70;99.90;;;;;;5111895;28;20097;-70
2024/01/30 01:45:16;;;;;;;22.52;16.75;;;5.40;99.90;;;;;;5113892;28;20092;-70
2024/01/30 01:47:45;;;;;;;25.73;18.60;;;5.40;99.90;;;;;;5113207;28;20047;-70
2024/01/30 01:50:14;;;;;;;24.83;18.48;;;5.70;99.90;;;;;;5115075;28;20391;-69
2024/01/30 01:52:42;;;;;;;22.77;18.45;;;5.40;99.90;;;;;;5113937;28;20105;-71
2024/01/30 01:55:09;;;;;;;24.98;17.83;;;5.50;99.90;;;;;;5111327;28;20055;-70
2024/01/30 01:57:36;;;;;;;28.63;19.52;;;5.30;99.90;;;;;;5113809;28;21018;-70
2024/01/30 02:00:04;;;;;;;24.65;18.60;;;5.30;99.90;;;;;;5113470;28;20047;-70
2024/01/30 02:02:35;;;;;;;24.33;18.30;;;5.30;99.90;;;;;;5113234;28;20043;-70
2024/01/30 02:05:02;;;;;;;27.75;18.65;;;5.30;99.90;;;;;;5113632;28;20445;-70
2024/01/30 02:07:30;;;;;;;27.13;19.52;;;5.30;99.90;;;;;;5113524;28;20093;-70
2024/01/30 02:09:57;;;;;;;26.13;19.17;;;5.30;99.90;;;;;;5112765;28;20101;-70
2024/01/30 02:12:24;;;;;;;23.75;18.70;;;5.60;99.90;;;;;;5113448;28;20055;-70
2024/01/30 02:14:51;;;;;;;27.20;19.35;;;5.30;99.90;;;;;;5111045;28;20097;-70
2024/01/30 02:17:18;;;;;;;28.83;18.85;;;5.30;99.90;;;;;;5112341;28;20048;-69
2024/01/30 02:19:45;;;;;;;26.55;18.40;;;5.40;99.90;;;;;;5113417;28;20051;-70
2024/01/30 02:22:14;;;;;;;27.38;19.08;;;5.20;99.90;;;;;;5112721;28;20468;-70
2024/01/30 02:24:41;;;;;;;25.80;19.85;;;5.30;99.90;;;;;;5113301;28;20062;-70
2024/01/30 02:27:08;;;;;;;29.38;19.15;;;5.30;99.90;;;;;;5113159;28;20055;-70
2024/01/30 02:29:34;;;;;;;23.52;18.48;;;5.30;99.90;;;;;;5112465;28;20043;-70
2024/01/30 02:32:01;;;;;;;24.08;18.10;;;5.30;99.90;;;;;;5110959;28;20054;-71
2024/01/30 02:34:28;;;;;;;29.65;18.52;;;5.40;99.90;;;;;;5112835;28;20044;-71
2024/01/30 02:36:55;;;;;;;27.25;18.45;;;5.60;99.90;;;;;;5112279;28;20047;-71
2024/01/30 02:39:23;;;;;;;29.83;19.10;;;5.40;99.90;;;;;;5112845;28;20572;-70
2024/01/30 02:41:50;;;;;;;25.02;19.42;;;5.40;99.90;;;;;;5113003;28;20051;-71
2024/01/30 02:44:17;;;;;;;27.13;18.85;;;5.40;99.90;;;;;;5112292;28;20047;-71
2024/01/30 02:46:44;;;;;;;23.98;18.15;;;5.30;99.90;;;;;;5112612;28;20043;-70
2024/01/30 02:49:11;;;;;;;25.10;18.23;;;5.40;99.90;;;;;;5110858;28;20425;-70
2024/01/30 02:51:38;;;;;;;24.35;18.00;;;5.40;99.90;;;;;;5112116;28;20159;-70
2024/01/30 02:54:05;;;;;;;25.30;17.17;;;5.60;99.90;;;;;;5112569;28;20096;-70
2024/01/30 02:56:34;;;;;;;27.92;18.50;;;5.40;99.90;;;;;;5112636;28;20100;-69
2024/01/30 02:59:00;;;;;;;25.33;18.45;;;5.40;99.90;;;;;;5111847;28;20055;-70
2024/01/30 03:01:27;;;;;;;29.42;19.95;;;5.40;99.90;;;;;;5110037;28;20040;-70
2024/01/30 03:03:54;;;;;;;24.92;17.70;;;5.40;99.90;;;;;;5112536;28;20100;-71
2024/01/30 03:06:22;;;;;;;23.33;18.00;;;5.30;99.90;;;;;;5112116;28;20383;-70
2024/01/30 03:08:49;;;;;;;24.17;17.65;;;5.40;99.90;;;;;;5113301;28;20120;-70
2024/01/30 03:11:16;;;;;;;22.65;17.27;;;5.40;99.90;;;;;;5111852;28;20108;-70
2024/01/30 03:13:44;;;;;;;24.98;17.35;;;5.40;99.90;;;;;;5112054;28;20559;-70
2024/01/30 03:16:11;;;;;;;24.92;18.13;;;5.50;99.90;;;;;;5112178;28;20108;-69
2024/01/30 03:18:38;;;;;;;21.63;16.83;;;5.50;99.90;;;;;;5111702;28;20097;-71
2024/01/30 03:21:05;;;;;;;24.38;17.33;;;5.50;99.90;;;;;;5112011;28;20089;-71
2024/01/30 03:23:32;;;;;;;25.90;17.40;;;5.50;99.90;;;;;;5112295;28;20089;-70
2024/01/30 03:25:59;;;;;;;23.73;17.02;;;5.50;99.90;;;;;;5112417;28;20092;-71
2024/01/30 03:28:26;;;;;;;26.48;18.10;;;5.50;99.90;;;;;;5111636;28;20145;-71
2024/01/30 03:30:54;;;;;;;22.67;17.00;;;5.50;99.90;;;;;;5111729;28;20051;-71
2024/01/30 03:33:21;;;;;;;25.40;16.88;;;5.50;99.90;;;;;;5110893;28;20123;-71
2024/01/30 03:35:48;;;;;;;24.58;17.95;;;5.50;99.90;;;;;;5111809;28;20044;-71
2024/01/30 03:38:15;;;;;;;23.95;17.33;;;5.50;99.90;;;;;;5111878;28;20451;-71
2024/01/30 03:40:42;;;;;;;23.17;17.27;;;5.50;99.90;;;;;;5111395;28;20112;-70
2024/01/30 03:43:08;;;;;;;21.23;17.15;;;5.50;99.90;;;;;;5111686;28;20043;-70
2024/01/30 03:45:35;;;;;;;21.02;16.20;;;5.50;99.90;;;;;;5111661;28;20092;-71
2024/01/30 03:48:04;;;;;;;23.98;17.33;;;5.60;99.90;;;;;;5111247;28;20055;-70
2024/01/30 03:50:31;;;;;;;22.50;16.00;;;5.50;99.90;;;;;;5111492;28;20097;-70
2024/01/30 03:52:58;;;;;;;22.38;16.48;;;5.50;99.90;;;;;;5111680;28;20096;-70
2024/01/30 03:55:24;;;;;;;22.13;16.38;;;5.50;99.90;;;;;;5110733;28;20055;-70
2024/01/30 03:57:51;;;;;;;23.95;16.35;;;5.60;99.90;;;;;;5111620;28;20407;-71
2024/01/30 04:00:19;;;;;;;23.00;16.15;;;5.60;99.90;;;;;;5111157;28;20048;-70
2024/01/30 04:02:46;;;;;;;20.10;15.75;;;5.60;99.90;;;;;;5110633;28;20043;-70
2024/01/30 04:05:14;;;;;;;20.67;15.50;;;5.70;99.90;;;;;;5109435;28;20128;-70
2024/01/30 04:07:41;;;;;;;21.38;16.15;;;5.80;99.90;;;;;;5110778;28;20051;-69
2024/01/30 04:10:09;;;;;;;23.58;16.40;;;5.70;99.90;;;;;;5111200;28;20044;-70
2024/01/30 04:12:36;;;;;;;22.92;15.80;;;5.80;99.90;;;;;;5109360;28;20138;-70
2024/01/30 04:15:03;;;;;;;22.35;16.02;;;5.90;99.90;;;;;;5110692;28;20112;-70
2024/01/30 04:17:31;;;;;;;22.98;15.80;;;;;;;;;;5112670;28;20138;-70
2024/01/30 04:19:57;;;;;;;23.00;15.32;;;5.90;99.90;;;;;;5111299;28;20130;-70
2024/01/30 04:22:26;;;;;;;19.23;14.63;;;5.90;99.90;;;;;;5110841;28;20458;-70
2024/01/30 04:24:53;;;;;;;19.73;14.82;;;6.00;99.90;;;;;;5109192;28;20384;-70
2024/01/30 04:27:19;;;;;;;19.17;14.48;;;6.00;99.90;;;;;;5111258;28;20116;-70
2024/01/30 04:29:46;;;;;;;20.98;13.75;;;6.00;99.90;;;;;;5110602;28;20039;-70
2024/01/30 04:32:13;;;;;;;20.65;14.27;;;6.00;99.90;;;;;;5111164;28;20096;-70
2024/01/30 04:34:40;;;;;;;19.23;14.10;;;6.10;99.90;;;;;;5111451;28;20445;-70
2024/01/30 04:37:07;;;;;;;18.88;14.35;;;6.10;99.90;;;;;;5110267;28;20055;-70
2024/01/30 04:39:35;;;;;;;21.75;14.80;;;6.10;99.90;;;;;;5112823;28;20104;-70
2024/01/30 04:42:02;;;;;;;19.80;14.27;;;6.20;99.90;;;;;;5113341;28;20047;-69
2024/01/30 04:44:29;;;;;;;18.92;14.52;;;6.20;99.90;;;;;;5114654;28;20050;-70
2024/01/30 04:46:58;;;;;;;21.05;14.60;;;6.20;99.90;;;;;;5116336;28;20044;-71
2024/01/30 04:49:25;;;;;;;21.05;14.70;;;6.40;99.90;;;;;;5106718;28;20044;-69
2024/01/30 04:51:52;;;;;;;20.60;14.60;;;6.30;99.90;;;;;;5101750;28;20059;-69
2024/01/30 04:54:19;;;;;;;18.90;14.18;;;6.30;99.90;;;;;;5110434;28;20547;-69
2024/01/30 04:56:47;;;;;;;22.38;14.98;;;6.30;99.90;;;;;;5107155;28;20059;-70
2024/01/30 04:59:14;;;;;;;22.02;14.52;;;6.40;99.90;;;;;;5109402;28;20460;-69
2024/01/30 05:01:41;;;;;;;22.45;14.48;;;6.40;99.90;;;;;;5111318;28;20058;-70
2024/01/30 05:04:11;;;;;;;19.17;13.27;;;6.70;99.90;;;;;;5108703;28;20070;-70
2024/01/30 05:06:38;;;;;;;17.90;13.95;;;6.50;99.90;;;;;;5111184;28;20059;-70
2024/01/30 05:09:05;;;;;;;18.40;14.30;;;6.50;99.90;;;;;;5112332;28;20053;-70
2024/01/30 05:11:32;;;;;;;20.38;13.45;;;6.50;99.90;;;;;;5110060;28;20127;-69
2024/01/30 05:14:00;;;;;;;18.98;12.93;;;6.50;99.90;;;;;;5112410;28;20055;-70
2024/01/30 05:16:27;;;;;;;18.58;13.57;;;6.50;99.90;;;;;;5110717;28;20048;-70
2024/01/30 05:18:54;;;;;;;18.38;12.18;;;6.60;99.90;;;;;;5112267;28;20043;-70
2024/01/30 05:21:20;;;;;;;16.55;12.90;;;6.60;99.90;;;;;;5110676;28;20044;-70
2024/01/30 05:23:47;;;;;;;18.05;13.35;;;6.80;99.90;;;;;;5111247;28;20064;-70
2024/01/30 05:26:14;;;;;;;17.90;12.52;;;6.60;99.90;;;;;;5110705;28;20047;-71
2024/01/30 05:28:41;;;;;;;19.27;13.85;;;6.70;99.90;;;;;;5111229;28;20518;-69
2024/01/30 05:31:09;;;;;;;16.98;13.30;;;6.70;99.90;;;;;;5110430;28;20120;-71
2024/01/30 05:33:36;;;;;;;17.23;13.18;;;6.70;99.90;;;;;;5110667;28;20043;-70
2024/01/30 05:36:03;;;;;;;17.67;13.38;;;6.80;99.90;;;;;;5108095;28;20552;-70
2024/01/30 05:38:31;;;;;;;19.00;13.32;;;6.80;99.90;;;;;;5109188;28;20051;-70
2024/01/30 05:40:59;;;;;;;19.63;13.40;;;6.80;99.90;;;;;;5110355;28;20085;-70
2024/01/30 05:43:26;;;;;;;15.45;12.75;;;6.80;99.90;;;;;;5109063;28;20110;-70
2024/01/30 05:45:53;;;;;;;17.27;13.15;;;6.70;99.90;;;;;;5108725;28;20060;-69
2024/01/30 05:48:21;;;;;;;19.40;12.90;;;6.70;99.90;;;;;;5108438;28;20043;-69
2024/01/30 05:50:48;;;;;;;20.20;12.65;;;6.70;99.90;;;;;;5107400;28;20092;-69
2024/01/30 05:53:15;;;;;;;18.40;13.00;;;6.70;99.90;;;;;;5108597;28;20052;-70
2024/01/30 05:55:42;;;;;;;17.38;13.20;;;6.70;99.90;;;;;;5110722;28;20395;-69
2024/01/30 05:58:09;;;;;;;15.23;12.18;;;6.70;99.90;;;;;;5107364;28;20097;-70
2024/01/30 06:00:35;;;;;;;18.42;13.40;;;6.70;99.90;;;;;;5107879;28;20052;-69
2024/01/30 06:03:03;;;;;;;20.85;13.02;;;6.60;99.90;;;;;;5111246;28;20092;-69
2024/01/30 06:05:31;;;;;;;19.55;12.65;;;6.70;99.90;;;;;;5105930;28;20051;-70
2024/01/30 06:07:58;;;;;;;19.60;12.23;;;6.70;99.90;;;;;;5108376;28;20060;-68
2024/01/30 06:10:25;;;;;;;19.90;13.55;;;6.80;99.90;;;;;;5109418;28;20407;-70
2024/01/30 06:12:52;;;;;;;19.65;12.20;;;6.80;99.90;;;;;;5105048;28;20117;-70
2024/01/30 06:15:18;;;;;;;16.40;11.93;;;6.80;99.90;;;;;;5108130;28;20052;-70
2024/01/30 06:17:45;;;;;;;18.23;12.60;;;6.80;99.90;;;;;;5107631;28;20101;-71
2024/01/30 06:20:12;;;;;;;16.80;12.43;;;6.80;99.90;;;;;;5108819;28;20421;-70
2024/01/30 06:22:40;;;;;;;17.80;12.32;;;6.80;99.90;;;;;;5106447;28;20048;-69
2024/01/30 06:25:08;;;;;;;19.48;13.18;;;6.80;99.90;;;;;;5102424;28;20051;-70
2024/01/30 06:27:35;;;;;;;15.52;12.05;;;6.80;99.90;;;;;;5104802;28;20052;-71
2024/01/30 06:30:03;;;;;;;17.23;13.05;;;6.90;99.90;;;;;;5106971;28;20440;-71
2024/01/30 06:32:34;;;;;;;14.95;12.00;;;6.90;99.90;;;;;;5105664;28;20048;-71
2024/01/30 06:35:01;;;;;;;19.25;12.40;;;7.10;99.90;;;;;;5107528;28;20078;-69
2024/01/30 06:37:27;;;;;;;15.57;11.55;;;6.90;99.90;;;;;;5102942;28;20050;-70
2024/01/30 06:39:56;;;;;;;19.80;13.05;;;7.10;99.90;;;;;;5107027;28;20101;-69
2024/01/30 06:42:22;;;;;;;17.08;12.40;;;7.00;99.90;;;;;;5107318;28;20047;-69
2024/01/30 06:44:49;;;;;;;19.65;13.38;;;7.00;99.90;;;;;;5107396;28;20452;-69
2024/01/30 06:47:16;;;;;;;20.52;11.68;;;6.90;99.90;;;;;;5111341;28;20112;-69
2024/01/30 06:49:43;;;;;;;16.02;11.77;;;7.00;99.90;;;;;;5106594;28;20116;-69
2024/01/30 06:52:11;;;;;;;15.27;11.77;;;7.00;99.90;;;;;;5112685;28;20060;-69
2024/01/30 06:54:38;;;;;;;15.88;12.43;;;7.00;99.90;;;;;;5113893;28;20064;-70
2024/01/30 06:57:08;;;;;;;16.38;12.13;;;7.00;99.90;;;;;;5113087;28;20404;-70
2024/01/30 06:59:35;;;;;;;;;;;7.10;99.90;;;;;;5112570;28;20116;-70
2024/01/30 07:02:02;;;;;;;17.02;11.73;;;7.10;99.90;;;;;;5112222;28;19920;-70
2024/01/30 07:04:29;;;;;;;14.85;11.20;;;7.10;99.90;;;;;;5111314;28;20051;-71
2024/01/30 07:06:57;;;;;;;16.48;11.70;;;7.10;99.90;;;;;;5112417;28;20039;-69
2024/01/30 07:09:24;;;;;;;18.10;11.85;;;7.10;99.90;;;;;;5112164;28;20544;-69
2024/01/30 07:11:51;;;;;;;15.50;11.50;;;7.10;99.90;;;;;;5111587;28;20035;-69
2024/01/30 07:14:19;;;;;;;15.55;11.80;;;7.10;99.90;;;;;;5119807;28;20054;-69
2024/01/30 07:16:46;;;;;;;14.77;11.52;;;7.10;99.90;;;;;;5125985;28;20094;-69
2024/01/30 07:19:13;;;;;;;17.30;10.63;;;7.20;99.90;;;;;;5120897;28;20043;-69
2024/01/30 07:21:40;;;;;;;16.80;11.88;;;7.20;99.90;;;;;;5114284;28;20044;-70
2024/01/30 07:24:07;;;;;;;14.73;12.02;;;7.20;99.90;;;;;;5112248;28;20055;-70
2024/01/30 07:26:35;;;;;;;17.40;12.23;;;7.20;99.90;;;;;;5111663;28;20046;-70
2024/01/30 07:29:03;;;;;;;17.42;12.45;;;7.30;99.90;;;;;;5111852;28;20495;-70
2024/01/30 07:31:31;;;;;;;18.00;12.50;;;7.30;99.90;;;;;;5111175;28;20047;-70
2024/01/30 07:33:58;;;;;;;17.42;12.05;;;7.30;99.90;;;;;;5109806;28;20452;-70
2024/01/30 07:36:26;;;;;;;15.70;12.27;;;7.30;99.90;;;;;;5111476;28;20054;-70
2024/01/30 07:38:54;;;;;;;14.63;11.45;;;7.30;99.90;;;;;;5111230;28;20083;-70
2024/01/30 07:41:21;;;;;;;17.08;11.45;;;7.30;99.90;;;;;;5111791;28;20050;-69
2024/01/30 07:43:47;;;;;;;16.38;11.80;;;7.30;99.90;;;;;;5111762;28;20084;-69
2024/01/30 07:46:14;;;;;;;17.73;12.77;;;7.40;99.90;;;;;;5108889;28;20571;-70
2024/01/30 07:48:43;;;;;;;16.13;11.63;;;7.50;99.90;;;;;;5111477;28;20048;-69
2024/01/30 07:51:10;;;;;;;14.93;11.63;;;7.50;99.90;;;;;;5112769;28;20043;-70
2024/01/30 07:53:37;;;;;;;14.18;11.32;;;7.50;99.90;;;;;;5111100;28;20082;-70
2024/01/30 07:56:04;;;;;;;15.50;11.50;;;7.50;99.90;;;;;;5111194;28;20067;-70
2024/01/30 07:58:31;;;;;;;15.75;12.15;;;7.60;99.90;;;;;;5113908;27;20040;-69
2024/01/30 08:00:58;;;;;;;14.88;11.27;;;7.60;99.90;;;;;;5113586;27;20047;-69
2024/01/30 08:03:25;;;;;;;14.50;11.82;;;7.60;99.90;;;;;;5097188;27;20126;-69
2024/01/30 08:05:53;;;;;;;16.20;12.27;;;7.70;99.90;;;;;;5095736;27;20058;-70
2024/01/30 08:08:20;;;;;;;17.40;11.93;;;7.80;99.90;;;;;;5095905;27;21253;-69
2024/01/30 08:10:48;;;;;;;13.90;10.18;;;7.70;99.90;;;;;;5097092;27;20044;-70
2024/01/30 08:13:14;;;;;;;15.75;11.63;;;7.70;99.90;;;;;;5096054;27;20066;-70
2024/01/30 08:15:41;;;;;;;15.63;11.13;;;7.80;99.90;;;;;;5112896;27;20388;-69
2024/01/30 08:18:08;;;;;;;20.73;11.50;;;7.80;99.90;;;;;;5113768;27;20051;-70
2024/01/30 08:20:35;;;;;;;17.85;11.25;;;7.80;99.90;;;;;;5096480;27;20093;-69
2024/01/30 08:23:03;;;;;;;14.35;11.18;;;7.90;99.90;;;;;;5112069;28;20062;-69
2024/01/30 08:25:30;;;;;;;16.30;10.38;;;7.90;99.90;;;;;;5096320;27;20499;-69
2024/01/30 08:27:58;;;;;;;15.88;11.43;;;7.90;99.90;;;;;;5096260;27;20101;-69
2024/01/30 08:30:24;;;;;;;19.20;11.48;;;7.80;99.90;;;;;;5095314;27;20086;-69
2024/01/30 08:32:51;;;;;;;15.55;10.13;;;7.90;99.90;;;;;;5096342;27;20093;-69
2024/01/30 08:35:18;;;;;;;15.07;10.55;;;7.90;99.90;;;;;;5130374;28;20040;-69
2024/01/30 08:37:46;;;;;;;16.10;10.82;;;7.90;99.90;;;;;;5114529;28;20047;-69
2024/01/30 08:40:14;;;;;;;14.43;11.40;;;7.90;99.90;;;;;;5114365;28;20054;-69
2024/01/30 08:42:41;;;;;;;17.02;10.93;;;8.00;99.90;;;;;;5113759;28;20046;-69
2024/01/30 08:45:09;;;;;;;15.43;11.48;;;8.00;99.90;;;;;;5114455;28;20483;-69
2024/01/30 08:47:36;;;;;;;13.05;9.48;;;8.10;99.90;;;;;;5112326;28;20126;-69
2024/01/30 08:50:04;;;;;;;15.57;10.65;;;8.20;99.90;;;;;;5114132;28;20098;-69
2024/01/30 08:52:30;;;;;;;14.55;10.98;;;8.30;99.90;;;;;;5096678;27;20422;-69
2024/01/30 08:54:57;;;;;;;18.17;10.65;;;8.40;99.90;;;;;;5113504;27;20109;-69
2024/01/30 08:57:28;;;;;;;12.60;9.60;;;8.40;99.90;;;;;;5096106;27;20100;-69
2024/01/30 08:59:55;;;;;;;13.38;9.93;;;8.50;99.90;;;;;;5110926;27;20100;-69
2024/01/30 09:02:22;;;;;;;15.20;10.82;;;8.50;99.90;;;;;;5096070;27;20413;-70
2024/01/30 09:04:49;;;;;;;14.18;9.88;;;8.60;99.90;;;;;;5096079;27;20080;-70
2024/01/30 09:07:16;;;;;;;16.38;11.05;;;8.60;99.90;;;;;;5095449;27;20344;-70
2024/01/30 09:09:43;;;;;;;14.23;9.88;;;8.60;99.90;;;;;;5113208;27;20069;-70
2024/01/30 09:12:11;;;;;;;14.25;10.20;;;8.60;99.90;;;;;;5111413;28;20047;-70
2024/01/30 09:14:41;;;;;;;13.77;10.13;;;8.60;99.90;;;;;;5114008;28;20126;-70
2024/01/30 09:17:08;;;;;;;15.48;11.45;;;8.60;99.90;;;;;;5113395;28;20051;-70
2024/01/30 09:19:34;;;;;;;16.67;10.63;;;8.60;99.90;;;;;;5114346;28;20063;-70
2024/01/30 09:22:01;;;;;;;12.25;9.63;;;8.70;99.90;;;;;;5114073;28;20092;-70
2024/01/30 09:24:28;;;;;;;16.67;10.70;;;8.70;99.90;;;;;;5096216;27;20055;-70
2024/01/30 09:26:55;;;;;;;15.52;10.57;;;8.80;99.90;;;;;;5097399;27;20047;-69
2024/01/30 09:29:22;;;;;;;18.58;9.95;;;8.80;99.90;;;;;;5100072;27;20427;-70
2024/01/30 09:31:50;;;;;;;16.50;11.02;;;8.90;99.90;;;;;;5099950;27;20100;-71
2024/01/30 09:34:17;;;;;;;15.50;9.85;;;9.10;99.90;;;;;;5099118;27;20702;-69
2024/01/30 09:36:44;;;;;;;15.93;10.10;;;9.30;99.90;;;;;;5099880;27;20043;-70
2024/01/30 09:39:11;;;;;;;16.60;10.35;;;9.40;99.90;;;;;;5097934;27;20092;-70
2024/01/30 09:41:46;;;;;;;16.27;11.02;;;9.50;99.90;;;;;;5099593;27;20047;-70
2024/01/30 09:44:14;;;;;;;12.13;9.68;;;9.60;99.90;;;;;;5116410;27;20465;-70
2024/01/30 09:46:42;;;;;;;14.13;8.93;;;9.70;99.90;;;;;;5114430;27;20129;-70
2024/01/30 09:49:10;;;;;;;13.63;9.55;;;9.70;99.90;;;;;;5117193;27;20043;-70
2024/01/30 09:51:38;;;;;;;14.70;9.77;;;9.70;99.90;;;;;;5135466;27;20150;-70
2024/01/30 09:54:05;;;;;;;15.07;9.68;;;9.80;99.90;;;;;;5114595;27;20051;-69
2024/01/30 09:56:32;;;;;;;17.60;10.65;;;9.80;99.90;;;;;;5125808;27;20056;-70
2024/01/30 09:58:59;;;;;;;16.40;9.82;;;9.90;99.90;;;;;;5099652;27;20054;-69
2024/01/30 10:01:27;;;;;;;12.93;10.18;;;9.90;99.90;;;;;;5115395;27;20495;-70
2024/01/30 10:03:54;;;;;;;14.50;10.18;;;9.90;99.90;;;;;;5098991;27;20040;-69
2024/01/30 10:06:23;;;;;;;14.90;9.95;;;10.00;99.90;;;;;;5114263;27;20039;-70
2024/01/30 10:08:50;;;;;;;18.60;10.55;;;10.00;99.90;;;;;;5135239;27;20111;-70
2024/01/30 10:11:17;;;;;;;15.45;10.25;;;10.00;99.90;;;;;;5116730;27;20039;-70
2024/01/30 10:13:44;;;;;;;21.70;10.32;;;10.10;99.90;;;;;;5097271;27;20047;-70
2024/01/30 10:16:11;;;;;;;14.55;10.70;;;10.10;99.90;;;;;;5098969;27;20491;-70
2024/01/30 10:18:38;;;;;;;16.40;10.68;;;10.20;99.90;;;;;;5114753;27;20448;-69
2024/01/30 10:21:05;;;;;;;19.45;10.45;;;10.20;99.90;;;;;;5116108;27;20180;-70
2024/01/30 10:23:34;;;;;;;14.35;9.35;;;10.30;99.90;;;;;;5135058;27;20043;-70
2024/01/30 10:26:01;;;;;;;15.20;10.27;;;10.30;99.90;;;;;;5097269;27;20196;-69
2024/01/30 10:28:29;;;;;;;18.38;10.35;;;10.30;99.90;;;;;;5097855;27;20104;-69
2024/01/30 10:31:00;;;;;;;16.63;10.07;;;10.30;99.90;;;;;;5098952;27;20404;-69
2024/01/30 10:33:28;;;;;;;16.85;9.77;;;10.30;99.90;;;;;;5099220;27;20079;-69
2024/01/30 10:35:58;;;;;;;15.48;9.63;;;10.30;99.90;;;;;;5096898;27;20456;-70
2024/01/30 10:38:28;;;;;;;14.40;10.00;;;10.20;99.90;;;;;;5097986;27;20047;-70
2024/01/30 10:40:58;;;;;;;15.55;9.82;;;10.20;99.90;;;;;;5098611;27;20058;-70
2024/01/30 10:43:33;;;;;;;15.85;9.60;;;10.10;99.90;;;;;;5113966;27;20043;-69
2024/01/30 10:46:12;;;;;;;14.75;10.15;;;10.10;99.90;;;;;;5098930;27;20071;-69
2024/01/30 10:48:44;;;;;;;15.60;10.35;;;10.10;99.90;;;;;;5114592;27;20463;-69
2024/01/30 10:51:12;;;;;;;12.98;9.75;;;10.10;99.90;;;;;;5096720;27;20096;-69
2024/01/30 10:53:40;;;;;;;13.98;10.13;;;10.10;99.90;;;;;;5113715;27;20043;-69
2024/01/30 10:56:11;;;;;;;15.65;11.23;;;10.10;99.90;;;;;;5115137;27;20502;-69
2024/01/30 10:58:38;;;;;;;15.45;10.25;;;10.20;99.90;;;;;;5115972;27;20047;-69
2024/01/30 11:01:06;;;;;;;22.13;10.82;;;10.20;99.90;;;;;;5113826;27;20051;-69
2024/01/30 11:03:35;;;;;;;15.75;10.05;;;10.20;99.90;;;;;;5096558;27;20760;-69
2024/01/30 11:06:01;;;;;;;13.88;10.40;;;10.10;99.90;;;;;;5098378;27;20112;-69
2024/01/30 11:08:29;;;;;;;14.80;10.52;;;10.20;99.90;;;;;;5096680;27;20060;-69
2024/01/30 11:10:57;;;;;;;15.77;10.20;;;10.20;99.90;;;;;;5097110;27;20465;-70
2024/01/30 11:13:29;;;;;;;18.05;10.65;;;10.20;99.90;;;;;;5097821;27;20097;-69
2024/01/30 11:15:55;;;;;;;14.75;10.20;;;10.20;99.90;;;;;;5113675;27;20078;-69
2024/01/30 11:18:26;;;;;;;15.55;8.98;;;10.20;99.90;;;;;;5114819;27;20051;-70
2024/01/30 11:20:53;;;;;;;14.00;9.00;;;10.20;99.90;;;;;;5097723;27;20043;-70
2024/01/30 11:23:23;;;;;;;14.48;8.40;;;10.30;99.90;;;;;;5098243;27;20047;-70
2024/01/30 11:25:50;;;;;;;12.93;7.10;;;10.30;99.90;;;;;;5096224;27;20519;-70
2024/01/30 11:28:17;;;;;;;13.60;7.43;;;10.30;99.90;;;;;;5097588;27;20286;-70
2024/01/30 11:30:47;;;;;;;14.25;7.53;;;10.30;99.90;;;;;;5114585;27;20486;-70
2024/01/30 11:33:16;;;;;;;16.27;6.93;;;10.30;99.90;;;;;;5134307;27;20047;-70
2024/01/30 11:35:44;;;;;;;12.80;6.57;;;10.30;99.90;;;;;;5153232;27;20039;-70
2024/01/30 11:38:14;;;;;;;11.13;5.47;;;10.20;99.90;;;;;;5134054;27;20042;-70
2024/01/30 11:40:41;;;;;;;12.07;6.13;;;10.20;99.90;;;;;;5134825;27;20042;-69
2024/01/30 11:43:10;;;;;;;14.05;5.57;;;10.20;99.90;;;;;;5134169;27;20091;-69
2024/01/30 11:45:37;;;;;;;5.93;4.70;;;10.20;99.90;;;;;;5134064;27;20050;-69
2024/01/30 11:48:07;;;;;;;11.55;4.93;;;10.20;99.90;;;;;;5112812;27;20047;-69
2024/01/30 11:50:34;;;;;;;10.98;5.22;;;10.20;99.90;;;;;;5096026;27;20104;-70
2024/01/30 11:53:02;;;;;;;9.98;5.40;;;10.20;99.90;;;;;;5096293;27;20087;-69
2024/01/30 11:55:30;;;;;;;7.68;4.45;;;10.20;99.90;;;;;;5098199;27;20051;-69
2024/01/30 11:57:57;;;;;;;11.15;5.18;;;10.20;99.90;;;;;;5096335;27;20055;-69
2024/01/30 12:00:24;;;;;;;6.80;5.15;;;10.30;99.90;;;;;;5094988;28;20056;-69
2024/01/30 12:02:55;;;;;;;9.43;4.47;;;10.20;99.90;;;;;;5095664;28;20063;-70
2024/01/30 12:05:24;;;;;;;9.43;4.00;;;10.20;99.90;;;;;;5095881;27;20097;-70
2024/01/30 12:07:51;;;;;;;7.40;4.10;;;10.20;99.90;;;;;;5094753;28;20047;-69
2024/01/30 12:10:19;;;;;;;8.00;3.15;;;10.10;99.90;;;;;;5095645;28;20100;-70
2024/01/30 12:12:47;;;;;;;4.25;2.63;;;10.00;99.90;;;;;;5095326;28;20044;-69
2024/01/30 12:15:14;;;;;;;5.43;2.40;;;10.00;99.90;;;;;;5093392;28;20403;-69
2024/01/30 12:17:41;;;;;;;4.43;2.38;;;9.90;99.90;;;;;;5095729;28;20445;-70
2024/01/30 12:20:10;;;;;;;3.13;1.92;;;9.90;99.90;;;;;;5094777;28;20097;-70
2024/01/30 12:22:40;;;;;;;3.53;1.80;;;9.80;99.90;;;;;;5113227;28;20474;-69
2024/01/30 12:25:09;;;;;;;3.42;1.83;;;9.80;99.90;;;;;;5112983;28;20055;-69
2024/01/30 12:27:36;;;;;;;6.18;2.22;;;9.80;99.90;;;;;;5126607;28;20043;-69
2024/01/30 12:30:07;;;;;;;3.15;1.67;;;9.80;99.90;;;;;;5130524;28;20047;-70
2024/01/30 12:32:36;;;;;;;3.80;1.73;;;9.80;99.90;;;;;;5130249;28;20139;-70
2024/01/30 12:35:03;;;;;;;2.50;1.45;;;9.90;99.90;;;;;;5131649;28;20116;-69
2024/01/30 12:37:30;;;;;;;2.83;1.60;;;9.80;99.90;;;;;;5132182;28;20050;-70
2024/01/30 12:39:59;;;;;;;3.35;1.40;;;9.80;99.90;;;;;;5132086;28;20394;-70